sensor_id;sensor_type;location;lat;lon;timestamp;temperature;humidity
46898;DHT22;32646;50.958;6.258;2023-07-31T00:01:35;16.00;99.90
46898;DHT22;32646;50.958;6.258;2023-07-31T00:04:02;15.90;99.90
46898;DHT22;32646;50.958;6.258;2023-07-31T00:06:28;15.90;99.90
46898;DHT22;32646;50.958;6.258;2023-07-31T00:08:55;15.90;99.90
46898;DHT22;32646;50.958;6.258;2023-07-31T00:11:21;16.00;99.90
46898;DHT22;32646;50.958;6.258;2023-07-31T00:13:48;16.00;99.90
46898;DHT22;32646;50.958;6.258;2023-07-31T00:16:15;15.90;99.90
46898;DHT22;32646;50.958;6.258;2023-07-31T00:18:41;16.00;99.90
46898;DHT22;32646;50.958;6.258;2023-07-31T00:21:08;16.00;99.90
46898;DHT22;32646;50.958;6.258;2023-07-31T00:23:34;16.00;99.90
46898;DHT22;32646;50.958;6.258;2023-07-31T00:26:01;16.00;99.90
46898;DHT22;32646;50.958;6.258;2023-07-31T00:28:28;16.00;99.90
46898;DHT22;32646;50.958;6.258;2023-07-31T00:30:54;15.90;99.90
46898;DHT22;32646;50.958;6.258;2023-07-31T00:33:21;15.90;99.90
46898;DHT22;32646;50.958;6.258;2023-07-31T00:35:48;16.00;99.90
46898;DHT22;32646;50.958;6.258;2023-07-31T00:38:15;16.20;99.90
46898;DHT22;32646;50.958;6.258;2023-07-31T00:40:41;16.30;99.90
46898;DHT22;32646;50.958;6.258;2023-07-31T00:43:08;16.40;99.90
46898;DHT22;32646;50.958;6.258;2023-07-31T00:45:34;16.40;99.90
46898;DHT22;32646;50.958;6.258;2023-07-31T00:48:01;16.40;99.90
46898;DHT22;32646;50.958;6.258;2023-07-31T00:50:28;16.40;99.90
46898;DHT22;32646;50.958;6.258;2023-07-31T00:52:56;16.40;99.90
46898;DHT22;32646;50.958;6.258;2023-07-31T00:55:22;16.50;99.90
46898;DHT22;32646;50.958;6.258;2023-07-31T00:57:49;16.50;99.90
46898;DHT22;32646;50.958;6.258;2023-07-31T01:00:17;16.50;99.90
46898;DHT22;32646;50.958;6.258;2023-07-31T01:02:44;16.40;99.90
46898;DHT22;32646;50.958;6.258;2023-07-31T01:05:11;16.30;99.90
46898;DHT22;32646;50.958;6.258;2023-07-31T01:07:49;16.30;99.90
46898;DHT22;32646;50.958;6.258;2023-07-31T01:10:20;16.40;99.90
46898;DHT22;32646;50.958;6.258;2023-07-31T01:12:50;16.40;99.90
46898;DHT22;32646;50.958;6.258;2023-07-31T01:15:17;16.40;99.90
46898;DHT22;32646;50.958;6.258;2023-07-31T01:17:44;16.40;99.90
46898;DHT22;32646;50.958;6.258;2023-07-31T01:20:22;16.50;99.90
46898;DHT22;32646;50.958;6.258;2023-07-31T01:28:40;16.50;99.90
46898;DHT22;32646;50.958;6.258;2023-07-31T01:31:12;16.60;99.90
46898;DHT22;32646;50.958;6.258;2023-07-31T01:33:41;16.60;99.90
46898;DHT22;32646;50.958;6.258;2023-07-31T01:36:08;16.60;99.90
46898;DHT22;32646;50.958;6.258;2023-07-31T01:38:35;16.50;99.90
46898;DHT22;32646;50.958;6.258;2023-07-31T01:41:01;16.60;99.90
46898;DHT22;32646;50.958;6.258;2023-07-31T01:43:28;16.60;99.90
46898;DHT22;32646;50.958;6.258;2023-07-31T01:45:54;16.70;99.90
46898;DHT22;32646;50.958;6.258;2023-07-31T01:48:21;16.70;99.90
46898;DHT22;32646;50.958;6.258;2023-07-31T01:50:47;16.70;99.90
46898;DHT22;32646;50.958;6.258;2023-07-31T01:53:14;16.80;99.90
46898;DHT22;32646;50.958;6.258;2023-07-31T01:55:41;16.90;99.90
46898;DHT22;32646;50.958;6.258;2023-07-31T01:58:08;16.80;99.90
46898;DHT22;32646;50.958;6.258;2023-07-31T02:00:34;16.90;99.90
46898;DHT22;32646;50.958;6.258;2023-07-31T02:03:01;16.90;99.90
46898;DHT22;32646;50.958;6.258;2023-07-31T02:05:27;16.80;99.90
46898;DHT22;32646;50.958;6.258;2023-07-31T02:07:54;16.90;99.90
46898;DHT22;32646;50.958;6.258;2023-07-31T02:10:21;16.90;99.90
46898;DHT22;32646;50.958;6.258;2023-07-31T02:12:47;16.90;99.90
46898;DHT22;32646;50.958;6.258;2023-07-31T02:15:14;16.90;99.90
46898;DHT22;32646;50.958;6.258;2023-07-31T02:17:40;16.90;99.90
46898;DHT22;32646;50.958;6.258;2023-07-31T02:20:07;16.90;99.90
46898;DHT22;32646;50.958;6.258;2023-07-31T02:22:34;17.00;99.90
46898;DHT22;32646;50.958;6.258;2023-07-31T02:25:01;17.00;99.90
46898;DHT22;32646;50.958;6.258;2023-07-31T02:27:27;17.00;99.90
46898;DHT22;32646;50.958;6.258;2023-07-31T02:29:54;17.00;99.90
46898;DHT22;32646;50.958;6.258;2023-07-31T02:32:21;17.10;99.90
46898;DHT22;32646;50.958;6.258;2023-07-31T02:34:47;17.00;99.90
46898;DHT22;32646;50.958;6.258;2023-07-31T02:37:14;17.00;99.90
46898;DHT22;32646;50.958;6.258;2023-07-31T02:39:40;17.00;99.90
46898;DHT22;32646;50.958;6.258;2023-07-31T02:42:07;17.00;99.90
46898;DHT22;32646;50.958;6.258;2023-07-31T02:44:34;17.00;99.90
46898;DHT22;32646;50.958;6.258;2023-07-31T02:47:00;16.90;99.90
46898;DHT22;32646;50.958;6.258;2023-07-31T02:49:27;16.90;99.90
46898;DHT22;32646;50.958;6.258;2023-07-31T02:51:53;16.90;99.90
46898;DHT22;32646;50.958;6.258;2023-07-31T02:54:20;16.80;99.90
46898;DHT22;32646;50.958;6.258;2023-07-31T02:56:47;16.60;99.90
46898;DHT22;32646;50.958;6.258;2023-07-31T02:59:13;16.30;99.90
46898;DHT22;32646;50.958;6.258;2023-07-31T03:01:40;16.20;99.90
46898;DHT22;32646;50.958;6.258;2023-07-31T03:04:07;16.10;99.90
46898;DHT22;32646;50.958;6.258;2023-07-31T03:06:33;16.00;99.90
46898;DHT22;32646;50.958;6.258;2023-07-31T03:09:00;16.10;99.90
46898;DHT22;32646;50.958;6.258;2023-07-31T03:11:26;16.10;99.90
46898;DHT22;32646;50.958;6.258;2023-07-31T03:13:53;16.10;99.90
46898;DHT22;32646;50.958;6.258;2023-07-31T03:16:20;16.10;99.90
46898;DHT22;32646;50.958;6.258;2023-07-31T03:18:46;16.20;99.90
46898;DHT22;32646;50.958;6.258;2023-07-31T03:21:13;16.20;99.90
46898;DHT22;32646;50.958;6.258;2023-07-31T03:23:40;16.20;99.90
46898;DHT22;32646;50.958;6.258;2023-07-31T03:26:07;16.20;99.90
46898;DHT22;32646;50.958;6.258;2023-07-31T03:28:34;16.20;99.90
46898;DHT22;32646;50.958;6.258;2023-07-31T03:31:01;16.30;99.90
46898;DHT22;32646;50.958;6.258;2023-07-31T03:33:28;16.50;99.90
46898;DHT22;32646;50.958;6.258;2023-07-31T03:35:54;16.60;99.90
46898;DHT22;32646;50.958;6.258;2023-07-31T03:38:21;16.60;99.90
46898;DHT22;32646;50.958;6.258;2023-07-31T03:40:47;16.70;99.90
46898;DHT22;32646;50.958;6.258;2023-07-31T03:43:15;16.60;99.90
46898;DHT22;32646;50.958;6.258;2023-07-31T03:45:42;16.70;99.90
46898;DHT22;32646;50.958;6.258;2023-07-31T03:48:08;16.80;99.90
46898;DHT22;32646;50.958;6.258;2023-07-31T03:50:35;16.90;99.90
46898;DHT22;32646;50.958;6.258;2023-07-31T03:53:02;16.90;99.90
46898;DHT22;32646;50.958;6.258;2023-07-31T03:55:28;16.90;99.90
46898;DHT22;32646;50.958;6.258;2023-07-31T03:57:55;16.90;99.90
46898;DHT22;32646;50.958;6.258;2023-07-31T04:00:21;16.90;99.90
46898;DHT22;32646;50.958;6.258;2023-07-31T04:02:48;17.00;99.90
46898;DHT22;32646;50.958;6.258;2023-07-31T04:05:15;16.90;99.90
46898;DHT22;32646;50.958;6.258;2023-07-31T04:07:41;17.00;99.90
46898;DHT22;32646;50.958;6.258;2023-07-31T04:10:08;17.00;99.90
46898;DHT22;32646;50.958;6.258;2023-07-31T04:12:39;17.00;99.90
46898;DHT22;32646;50.958;6.258;2023-07-31T04:15:06;17.10;99.90
46898;DHT22;32646;50.958;6.258;2023-07-31T04:17:32;17.10;99.90
46898;DHT22;32646;50.958;6.258;2023-07-31T04:19:59;17.10;99.90
46898;DHT22;32646;50.958;6.258;2023-07-31T04:22:27;17.10;99.90
46898;DHT22;32646;50.958;6.258;2023-07-31T04:24:53;17.10;99.90
46898;DHT22;32646;50.958;6.258;2023-07-31T04:27:20;17.10;99.90
46898;DHT22;32646;50.958;6.258;2023-07-31T04:29:47;17.20;99.90
46898;DHT22;32646;50.958;6.258;2023-07-31T04:32:13;17.20;99.90
46898;DHT22;32646;50.958;6.258;2023-07-31T04:34:40;17.20;99.90
46898;DHT22;32646;50.958;6.258;2023-07-31T04:37:06;17.30;99.90
46898;DHT22;32646;50.958;6.258;2023-07-31T04:39:33;17.20;99.90
46898;DHT22;32646;50.958;6.258;2023-07-31T04:42:00;17.30;99.90
46898;DHT22;32646;50.958;6.258;2023-07-31T04:44:26;17.30;99.90
46898;DHT22;32646;50.958;6.258;2023-07-31T04:46:53;17.30;99.90
46898;DHT22;32646;50.958;6.258;2023-07-31T04:49:20;17.30;99.90
46898;DHT22;32646;50.958;6.258;2023-07-31T04:51:46;17.30;99.90
46898;DHT22;32646;50.958;6.258;2023-07-31T04:54:13;17.30;99.90
46898;DHT22;32646;50.958;6.258;2023-07-31T04:56:39;17.30;99.90
46898;DHT22;32646;50.958;6.258;2023-07-31T04:59:07;17.30;99.90
46898;DHT22;32646;50.958;6.258;2023-07-31T05:01:33;17.30;99.90
46898;DHT22;32646;50.958;6.258;2023-07-31T05:04:00;17.30;99.90
46898;DHT22;32646;50.958;6.258;2023-07-31T05:06:27;17.40;99.90
46898;DHT22;32646;50.958;6.258;2023-07-31T05:08:53;17.30;99.90
46898;DHT22;32646;50.958;6.258;2023-07-31T05:11:20;17.30;99.90
46898;DHT22;32646;50.958;6.258;2023-07-31T05:13:46;17.30;99.90
46898;DHT22;32646;50.958;6.258;2023-07-31T05:16:13;17.30;99.90
46898;DHT22;32646;50.958;6.258;2023-07-31T05:18:40;17.30;99.90
46898;DHT22;32646;50.958;6.258;2023-07-31T05:21:06;17.30;99.90
46898;DHT22;32646;50.958;6.258;2023-07-31T05:23:33;17.30;99.90
46898;DHT22;32646;50.958;6.258;2023-07-31T05:26:06;17.30;99.90
46898;DHT22;32646;50.958;6.258;2023-07-31T05:28:34;17.40;99.90
46898;DHT22;32646;50.958;6.258;2023-07-31T05:31:02;17.30;99.90
46898;DHT22;32646;50.958;6.258;2023-07-31T05:33:29;17.20;99.90
46898;DHT22;32646;50.958;6.258;2023-07-31T05:35:56;17.10;99.90
46898;DHT22;32646;50.958;6.258;2023-07-31T05:38:22;17.00;99.90
46898;DHT22;32646;50.958;6.258;2023-07-31T05:40:49;16.80;99.90
46898;DHT22;32646;50.958;6.258;2023-07-31T05:43:16;16.60;99.90
46898;DHT22;32646;50.958;6.258;2023-07-31T05:45:43;16.50;99.90
46898;DHT22;32646;50.958;6.258;2023-07-31T05:48:09;16.40;99.90
46898;DHT22;32646;50.958;6.258;2023-07-31T05:50:36;16.30;99.90
46898;DHT22;32646;50.958;6.258;2023-07-31T05:53:03;16.30;99.90
46898;DHT22;32646;50.958;6.258;2023-07-31T05:55:29;16.30;99.90
46898;DHT22;32646;50.958;6.258;2023-07-31T05:57:56;16.30;99.90
46898;DHT22;32646;50.958;6.258;2023-07-31T06:00:26;16.30;99.90
46898;DHT22;32646;50.958;6.258;2023-07-31T06:02:53;16.20;99.90
46898;DHT22;32646;50.958;6.258;2023-07-31T06:05:19;16.30;99.90
46898;DHT22;32646;50.958;6.258;2023-07-31T06:07:46;16.30;99.90
46898;DHT22;32646;50.958;6.258;2023-07-31T06:10:13;16.30;99.90
46898;DHT22;32646;50.958;6.258;2023-07-31T06:12:39;16.30;99.90
46898;DHT22;32646;50.958;6.258;2023-07-31T06:15:06;16.30;99.90
46898;DHT22;32646;50.958;6.258;2023-07-31T06:17:33;16.40;99.90
46898;DHT22;32646;50.958;6.258;2023-07-31T06:19:59;16.40;99.90
46898;DHT22;32646;50.958;6.258;2023-07-31T06:22:26;16.40;99.90
46898;DHT22;32646;50.958;6.258;2023-07-31T06:24:53;16.50;99.90
46898;DHT22;32646;50.958;6.258;2023-07-31T06:27:19;16.60;99.90
46898;DHT22;32646;50.958;6.258;2023-07-31T06:29:46;16.80;99.90
46898;DHT22;32646;50.958;6.258;2023-07-31T06:32:12;16.90;99.90
46898;DHT22;32646;50.958;6.258;2023-07-31T06:34:39;16.90;99.90
46898;DHT22;32646;50.958;6.258;2023-07-31T06:37:06;16.90;99.90
46898;DHT22;32646;50.958;6.258;2023-07-31T06:39:32;16.90;99.90
46898;DHT22;32646;50.958;6.258;2023-07-31T06:41:59;16.90;99.90
46898;DHT22;32646;50.958;6.258;2023-07-31T06:44:26;16.80;99.90
46898;DHT22;32646;50.958;6.258;2023-07-31T06:46:52;16.90;99.90
46898;DHT22;32646;50.958;6.258;2023-07-31T06:49:19;17.00;99.90
46898;DHT22;32646;50.958;6.258;2023-07-31T06:51:45;16.90;99.90
46898;DHT22;32646;50.958;6.258;2023-07-31T06:54:12;16.80;99.90
46898;DHT22;32646;50.958;6.258;2023-07-31T06:56:39;16.80;99.90
46898;DHT22;32646;50.958;6.258;2023-07-31T06:59:07;16.90;99.90
46898;DHT22;32646;50.958;6.258;2023-07-31T07:01:33;17.10;99.90
46898;DHT22;32646;50.958;6.258;2023-07-31T07:04:00;17.30;99.90
46898;DHT22;32646;50.958;6.258;2023-07-31T07:06:27;17.30;99.90
46898;DHT22;32646;50.958;6.258;2023-07-31T07:08:53;17.30;99.90
46898;DHT22;32646;50.958;6.258;2023-07-31T07:11:20;17.20;99.90
46898;DHT22;32646;50.958;6.258;2023-07-31T07:13:46;17.10;99.90
46898;DHT22;32646;50.958;6.258;2023-07-31T07:16:13;17.10;99.90
46898;DHT22;32646;50.958;6.258;2023-07-31T07:18:40;17.10;99.90
46898;DHT22;32646;50.958;6.258;2023-07-31T07:21:19;17.10;99.90
46898;DHT22;32646;50.958;6.258;2023-07-31T07:23:46;17.00;99.90
46898;DHT22;32646;50.958;6.258;2023-07-31T07:26:12;16.90;99.90
46898;DHT22;32646;50.958;6.258;2023-07-31T07:28:39;16.90;99.90
46898;DHT22;32646;50.958;6.258;2023-07-31T07:31:06;16.80;99.90
46898;DHT22;32646;50.958;6.258;2023-07-31T07:33:33;16.90;99.90
46898;DHT22;32646;50.958;6.258;2023-07-31T07:36:01;16.80;99.90
46898;DHT22;32646;50.958;6.258;2023-07-31T07:38:27;16.80;99.90
46898;DHT22;32646;50.958;6.258;2023-07-31T07:40:54;16.80;99.90
46898;DHT22;32646;50.958;6.258;2023-07-31T07:43:20;16.90;99.90
46898;DHT22;32646;50.958;6.258;2023-07-31T07:45:47;16.90;99.90
46898;DHT22;32646;50.958;6.258;2023-07-31T07:48:14;16.80;99.90
46898;DHT22;32646;50.958;6.258;2023-07-31T07:50:40;16.80;99.90
46898;DHT22;32646;50.958;6.258;2023-07-31T07:53:07;16.90;99.90
46898;DHT22;32646;50.958;6.258;2023-07-31T07:55:33;16.90;99.90
46898;DHT22;32646;50.958;6.258;2023-07-31T07:58:01;16.90;99.90
46898;DHT22;32646;50.958;6.258;2023-07-31T08:00:28;16.90;99.90
46898;DHT22;32646;50.958;6.258;2023-07-31T08:02:54;16.90;99.90
46898;DHT22;32646;50.958;6.258;2023-07-31T08:05:21;16.90;99.90
46898;DHT22;32646;50.958;6.258;2023-07-31T08:07:48;16.80;99.90
46898;DHT22;32646;50.958;6.258;2023-07-31T08:10:14;16.90;99.90
46898;DHT22;32646;50.958;6.258;2023-07-31T08:12:41;17.00;99.90
46898;DHT22;32646;50.958;6.258;2023-07-31T08:15:08;17.00;99.90
46898;DHT22;32646;50.958;6.258;2023-07-31T08:17:34;17.10;99.90
46898;DHT22;32646;50.958;6.258;2023-07-31T08:20:01;17.30;99.90
46898;DHT22;32646;50.958;6.258;2023-07-31T08:22:28;17.40;99.90
46898;DHT22;32646;50.958;6.258;2023-07-31T08:24:54;17.40;99.90
46898;DHT22;32646;50.958;6.258;2023-07-31T08:27:21;17.40;99.90
46898;DHT22;32646;50.958;6.258;2023-07-31T08:29:48;17.30;99.90
46898;DHT22;32646;50.958;6.258;2023-07-31T08:32:14;17.30;99.90
46898;DHT22;32646;50.958;6.258;2023-07-31T08:34:41;17.30;99.90
46898;DHT22;32646;50.958;6.258;2023-07-31T08:37:07;17.30;99.90
46898;DHT22;32646;50.958;6.258;2023-07-31T08:39:34;17.40;99.90
46898;DHT22;32646;50.958;6.258;2023-07-31T08:42:01;17.20;99.90
46898;DHT22;32646;50.958;6.258;2023-07-31T08:44:27;17.20;99.90
46898;DHT22;32646;50.958;6.258;2023-07-31T08:46:56;17.10;99.90
46898;DHT22;32646;50.958;6.258;2023-07-31T08:49:23;17.10;99.90
46898;DHT22;32646;50.958;6.258;2023-07-31T08:51:52;17.10;99.90
46898;DHT22;32646;50.958;6.258;2023-07-31T08:54:19;17.10;99.90
46898;DHT22;32646;50.958;6.258;2023-07-31T08:56:46;17.00;99.90
46898;DHT22;32646;50.958;6.258;2023-07-31T08:59:14;17.00;99.90
46898;DHT22;32646;50.958;6.258;2023-07-31T09:01:45;17.10;99.90
46898;DHT22;32646;50.958;6.258;2023-07-31T09:04:14;17.20;99.90
46898;DHT22;32646;50.958;6.258;2023-07-31T09:06:42;17.00;99.90
46898;DHT22;32646;50.958;6.258;2023-07-31T09:09:10;17.00;99.90
46898;DHT22;32646;50.958;6.258;2023-07-31T09:11:36;17.00;99.90
46898;DHT22;32646;50.958;6.258;2023-07-31T09:14:04;17.10;99.90
46898;DHT22;32646;50.958;6.258;2023-07-31T09:16:33;17.30;99.90
46898;DHT22;32646;50.958;6.258;2023-07-31T09:18:59;17.40;99.90
46898;DHT22;32646;50.958;6.258;2023-07-31T09:21:26;17.60;99.90
46898;DHT22;32646;50.958;6.258;2023-07-31T09:23:53;17.80;99.90
46898;DHT22;32646;50.958;6.258;2023-07-31T09:28:57;18.00;99.90
46898;DHT22;32646;50.958;6.258;2023-07-31T09:31:40;18.00;99.90
46898;DHT22;32646;50.958;6.258;2023-07-31T09:34:07;18.00;99.90
46898;DHT22;32646;50.958;6.258;2023-07-31T09:36:43;17.90;99.90
46898;DHT22;32646;50.958;6.258;2023-07-31T09:39:11;17.90;99.90
46898;DHT22;32646;50.958;6.258;2023-07-31T09:41:43;17.80;99.90
46898;DHT22;32646;50.958;6.258;2023-07-31T09:44:10;17.70;99.90
46898;DHT22;32646;50.958;6.258;2023-07-31T09:46:37;17.60;99.90
46898;DHT22;32646;50.958;6.258;2023-07-31T09:49:08;17.60;99.90
46898;DHT22;32646;50.958;6.258;2023-07-31T09:51:40;17.60;99.90
46898;DHT22;32646;50.958;6.258;2023-07-31T09:56:38;17.70;99.90
46898;DHT22;32646;50.958;6.258;2023-07-31T09:59:08;17.80;99.90
46898;DHT22;32646;50.958;6.258;2023-07-31T10:01:36;17.70;99.90
46898;DHT22;32646;50.958;6.258;2023-07-31T10:04:04;17.60;99.90
46898;DHT22;32646;50.958;6.258;2023-07-31T10:06:33;17.50;99.90
46898;DHT22;32646;50.958;6.258;2023-07-31T10:09:02;17.50;99.90
46898;DHT22;32646;50.958;6.258;2023-07-31T10:11:30;17.50;99.90
46898;DHT22;32646;50.958;6.258;2023-07-31T10:14:00;17.70;99.90
46898;DHT22;32646;50.958;6.258;2023-07-31T10:16:28;17.60;99.90
46898;DHT22;32646;50.958;6.258;2023-07-31T10:18:56;17.70;99.90
46898;DHT22;32646;50.958;6.258;2023-07-31T10:21:23;17.80;99.90
46898;DHT22;32646;50.958;6.258;2023-07-31T10:23:50;17.90;99.90
46898;DHT22;32646;50.958;6.258;2023-07-31T10:26:19;18.00;99.90
46898;DHT22;32646;50.958;6.258;2023-07-31T10:28:46;18.10;99.90
46898;DHT22;32646;50.958;6.258;2023-07-31T10:31:14;18.20;99.90
46898;DHT22;32646;50.958;6.258;2023-07-31T10:33:41;18.00;99.90
46898;DHT22;32646;50.958;6.258;2023-07-31T10:36:17;17.90;99.90
46898;DHT22;32646;50.958;6.258;2023-07-31T10:38:44;17.70;99.90
46898;DHT22;32646;50.958;6.258;2023-07-31T10:41:11;17.80;99.90
46898;DHT22;32646;50.958;6.258;2023-07-31T10:43:38;18.00;99.90
46898;DHT22;32646;50.958;6.258;2023-07-31T10:46:08;18.20;99.90
46898;DHT22;32646;50.958;6.258;2023-07-31T10:48:37;18.30;99.90
46898;DHT22;32646;50.958;6.258;2023-07-31T10:51:09;18.40;99.90
46898;DHT22;32646;50.958;6.258;2023-07-31T10:53:36;18.40;99.90
46898;DHT22;32646;50.958;6.258;2023-07-31T10:56:04;18.40;99.90
46898;DHT22;32646;50.958;6.258;2023-07-31T10:58:32;18.40;99.90
46898;DHT22;32646;50.958;6.258;2023-07-31T11:01:08;18.40;99.90
46898;DHT22;32646;50.958;6.258;2023-07-31T11:03:48;18.40;99.90
46898;DHT22;32646;50.958;6.258;2023-07-31T11:06:16;18.40;99.90
46898;DHT22;32646;50.958;6.258;2023-07-31T11:08:50;18.40;99.90
46898;DHT22;32646;50.958;6.258;2023-07-31T11:11:19;18.50;99.90
46898;DHT22;32646;50.958;6.258;2023-07-31T11:13:47;18.70;99.90
46898;DHT22;32646;50.958;6.258;2023-07-31T11:16:15;18.70;99.90
46898;DHT22;32646;50.958;6.258;2023-07-31T11:18:44;18.80;99.90
46898;DHT22;32646;50.958;6.258;2023-07-31T11:21:19;18.90;99.90
46898;DHT22;32646;50.958;6.258;2023-07-31T11:23:50;18.90;99.90
46898;DHT22;32646;50.958;6.258;2023-07-31T11:26:18;18.90;99.90
46898;DHT22;32646;50.958;6.258;2023-07-31T11:28:49;18.90;99.90
46898;DHT22;32646;50.958;6.258;2023-07-31T11:31:16;19.00;99.90
46898;DHT22;32646;50.958;6.258;2023-07-31T11:33:44;18.90;99.90
46898;DHT22;32646;50.958;6.258;2023-07-31T11:36:18;18.80;99.90
46898;DHT22;32646;50.958;6.258;2023-07-31T11:38:45;18.80;99.90
46898;DHT22;32646;50.958;6.258;2023-07-31T11:41:14;18.90;99.90
46898;DHT22;32646;50.958;6.258;2023-07-31T11:43:45;18.90;99.90
46898;DHT22;32646;50.958;6.258;2023-07-31T11:46:13;18.70;99.90
46898;DHT22;32646;50.958;6.258;2023-07-31T11:48:40;18.70;99.90
46898;DHT22;32646;50.958;6.258;2023-07-31T11:51:10;18.60;99.90
46898;DHT22;32646;50.958;6.258;2023-07-31T11:53:45;18.70;99.90
46898;DHT22;32646;50.958;6.258;2023-07-31T11:56:14;18.70;99.90
46898;DHT22;32646;50.958;6.258;2023-07-31T11:58:45;18.70;99.90
46898;DHT22;32646;50.958;6.258;2023-07-31T12:01:13;18.50;99.90
46898;DHT22;32646;50.958;6.258;2023-07-31T12:03:42;18.60;99.90
46898;DHT22;32646;50.958;6.258;2023-07-31T12:06:09;18.50;99.90
46898;DHT22;32646;50.958;6.258;2023-07-31T12:08:36;18.50;99.90
46898;DHT22;32646;50.958;6.258;2023-07-31T12:11:04;18.50;99.90
46898;DHT22;32646;50.958;6.258;2023-07-31T12:13:33;18.40;99.90
46898;DHT22;32646;50.958;6.258;2023-07-31T12:16:01;18.60;99.90
46898;DHT22;32646;50.958;6.258;2023-07-31T12:18:30;18.90;99.90
46898;DHT22;32646;50.958;6.258;2023-07-31T12:20:58;19.10;99.90
46898;DHT22;32646;50.958;6.258;2023-07-31T12:23:30;19.30;99.90
46898;DHT22;32646;50.958;6.258;2023-07-31T12:26:14;19.40;99.90
46898;DHT22;32646;50.958;6.258;2023-07-31T12:28:44;19.50;99.90
46898;DHT22;32646;50.958;6.258;2023-07-31T12:31:16;19.60;99.90
46898;DHT22;32646;50.958;6.258;2023-07-31T12:33:43;19.70;99.90
46898;DHT22;32646;50.958;6.258;2023-07-31T12:36:15;19.40;99.90
46898;DHT22;32646;50.958;6.258;2023-07-31T12:38:42;19.20;99.90
46898;DHT22;32646;50.958;6.258;2023-07-31T12:41:09;19.10;99.90
46898;DHT22;32646;50.958;6.258;2023-07-31T12:43:37;19.00;99.90
46898;DHT22;32646;50.958;6.258;2023-07-31T12:46:04;18.80;99.90
46898;DHT22;32646;50.958;6.258;2023-07-31T12:48:31;18.80;99.90
46898;DHT22;32646;50.958;6.258;2023-07-31T12:50:58;18.80;99.90
46898;DHT22;32646;50.958;6.258;2023-07-31T12:53:25;18.80;99.90
46898;DHT22;32646;50.958;6.258;2023-07-31T12:55:51;19.00;99.90
46898;DHT22;32646;50.958;6.258;2023-07-31T12:58:18;19.00;99.90
46898;DHT22;32646;50.958;6.258;2023-07-31T13:00:45;19.20;99.90
46898;DHT22;32646;50.958;6.258;2023-07-31T13:03:11;19.40;99.90
46898;DHT22;32646;50.958;6.258;2023-07-31T13:05:38;19.50;99.90
46898;DHT22;32646;50.958;6.258;2023-07-31T13:08:05;19.90;99.90
46898;DHT22;32646;50.958;6.258;2023-07-31T13:10:31;20.20;99.90
46898;DHT22;32646;50.958;6.258;2023-07-31T13:12:58;20.30;99.90
46898;DHT22;32646;50.958;6.258;2023-07-31T13:15:25;20.40;99.90
46898;DHT22;32646;50.958;6.258;2023-07-31T13:17:51;20.40;99.90
46898;DHT22;32646;50.958;6.258;2023-07-31T13:20:18;20.30;99.90
46898;DHT22;32646;50.958;6.258;2023-07-31T13:22:45;20.60;99.90
46898;DHT22;32646;50.958;6.258;2023-07-31T13:25:12;21.00;99.90
46898;DHT22;32646;50.958;6.258;2023-07-31T13:27:39;21.10;99.90
46898;DHT22;32646;50.958;6.258;2023-07-31T13:30:06;21.00;99.90
46898;DHT22;32646;50.958;6.258;2023-07-31T13:32:33;20.70;99.90
46898;DHT22;32646;50.958;6.258;2023-07-31T13:35:00;20.90;99.90
46898;DHT22;32646;50.958;6.258;2023-07-31T13:37:26;20.80;99.90
46898;DHT22;32646;50.958;6.258;2023-07-31T13:39:53;20.80;99.90
46898;DHT22;32646;50.958;6.258;2023-07-31T13:42:20;20.70;99.90
46898;DHT22;32646;50.958;6.258;2023-07-31T13:44:46;20.50;99.90
46898;DHT22;32646;50.958;6.258;2023-07-31T13:47:13;20.30;99.90
46898;DHT22;32646;50.958;6.258;2023-07-31T13:49:40;19.90;99.90
46898;DHT22;32646;50.958;6.258;2023-07-31T13:52:07;19.80;99.90
46898;DHT22;32646;50.958;6.258;2023-07-31T13:54:34;19.80;99.90
46898;DHT22;32646;50.958;6.258;2023-07-31T13:57:00;19.70;99.90
46898;DHT22;32646;50.958;6.258;2023-07-31T13:59:27;19.80;99.90
46898;DHT22;32646;50.958;6.258;2023-07-31T14:01:53;19.70;99.90
46898;DHT22;32646;50.958;6.258;2023-07-31T14:04:20;19.80;99.90
46898;DHT22;32646;50.958;6.258;2023-07-31T14:06:46;19.90;99.90
46898;DHT22;32646;50.958;6.258;2023-07-31T14:09:16;19.90;99.90
46898;DHT22;32646;50.958;6.258;2023-07-31T14:11:42;20.10;99.90
46898;DHT22;32646;50.958;6.258;2023-07-31T14:14:09;20.20;99.90
46898;DHT22;32646;50.958;6.258;2023-07-31T14:16:36;20.30;99.90
46898;DHT22;32646;50.958;6.258;2023-07-31T14:19:03;20.40;99.90
46898;DHT22;32646;50.958;6.258;2023-07-31T14:21:30;20.40;99.90
46898;DHT22;32646;50.958;6.258;2023-07-31T14:23:57;20.40;99.90
46898;DHT22;32646;50.958;6.258;2023-07-31T14:26:23;20.30;99.90
46898;DHT22;32646;50.958;6.258;2023-07-31T14:28:50;20.30;99.90
46898;DHT22;32646;50.958;6.258;2023-07-31T14:31:16;20.20;99.90
46898;DHT22;32646;50.958;6.258;2023-07-31T14:33:43;20.10;99.90
46898;DHT22;32646;50.958;6.258;2023-07-31T14:36:10;20.10;99.90
46898;DHT22;32646;50.958;6.258;2023-07-31T14:38:36;20.10;99.90
46898;DHT22;32646;50.958;6.258;2023-07-31T14:41:03;20.10;99.90
46898;DHT22;32646;50.958;6.258;2023-07-31T14:43:29;20.00;99.90
46898;DHT22;32646;50.958;6.258;2023-07-31T14:45:56;20.10;99.90
46898;DHT22;32646;50.958;6.258;2023-07-31T14:48:23;20.10;99.90
46898;DHT22;32646;50.958;6.258;2023-07-31T14:50:50;20.10;99.90
46898;DHT22;32646;50.958;6.258;2023-07-31T14:53:16;20.00;99.90
46898;DHT22;32646;50.958;6.258;2023-07-31T14:55:43;20.00;99.90
46898;DHT22;32646;50.958;6.258;2023-07-31T14:58:09;19.90;99.90
46898;DHT22;32646;50.958;6.258;2023-07-31T15:00:37;19.90;99.90
46898;DHT22;32646;50.958;6.258;2023-07-31T15:03:03;19.90;99.90
46898;DHT22;32646;50.958;6.258;2023-07-31T15:05:30;19.90;99.90
46898;DHT22;32646;50.958;6.258;2023-07-31T15:07:56;19.90;99.90
46898;DHT22;32646;50.958;6.258;2023-07-31T15:10:23;19.90;99.90
46898;DHT22;32646;50.958;6.258;2023-07-31T15:12:50;19.90;99.90
46898;DHT22;32646;50.958;6.258;2023-07-31T15:15:17;19.90;99.90
46898;DHT22;32646;50.958;6.258;2023-07-31T15:17:44;19.70;99.90
46898;DHT22;32646;50.958;6.258;2023-07-31T15:20:11;19.70;99.90
46898;DHT22;32646;50.958;6.258;2023-07-31T15:22:38;19.60;99.90
46898;DHT22;32646;50.958;6.258;2023-07-31T15:25:04;19.50;99.90
46898;DHT22;32646;50.958;6.258;2023-07-31T15:27:31;19.40;99.90
46898;DHT22;32646;50.958;6.258;2023-07-31T15:29:58;19.30;99.90
46898;DHT22;32646;50.958;6.258;2023-07-31T15:32:24;19.10;99.90
46898;DHT22;32646;50.958;6.258;2023-07-31T15:34:51;18.80;99.90
46898;DHT22;32646;50.958;6.258;2023-07-31T15:37:18;18.50;99.90
46898;DHT22;32646;50.958;6.258;2023-07-31T15:39:44;18.30;99.90
46898;DHT22;32646;50.958;6.258;2023-07-31T15:42:11;18.20;99.90